Broadalbin, NY

12:24 EST le 26 février 2017 (GMT -0500)
Saratoga Ave. | | Change Station

Alt. 846 ft 43.06 °N, 74.19 °W | Updated 3 minutes ago

Neige
Neige
31.4 ° F
Paraît 31 ° F
N
1.4
Vent Variable Vent de ONO
Gusts 6.9 mph

Aujourd'hui
Haut(e) -- | Bas -- ° F
--% Risque de précip.
Hier
Haut(e) -- | Bas -- ° F
Precip. -- pouce
Pression 30.00 pouce
Visibilité 10.0 Miles terrestres
Nuages Couvert 5500 ft
Refroidissement éolien 31 ° F
Point de rosée 20 ° F
Humidité 62%
Précipitations 0.00 pouce
Profondeur de la couche neigeuse Non disponible.
6:37 AM 5:42 PM
Nouvelle lune, 0% visible
METAR KALB 261651Z 31023G31KT 10SM OVC055 01/M10 A2999 RMK AO2 PK WND 29032/1640 SLP158 BINOVC T00111100
Pression 30.00 pouce
Visibilité 10.0 Miles terrestres
Nuages Couvert 5500 ft
Refroidissement éolien 31 ° F
Point de rosée 20 ° F
Humidité 62%
Précipitations 0.00 pouce
Profondeur de la couche neigeuse Non disponible.
6:37 AM 5:42 PM
Nouvelle lune, 0% visible
METAR KALB 261651Z 31023G31KT 10SM OVC055 01/M10 A2999 RMK AO2 PK WND 29032/1640 SLP158 BINOVC T00111100

Get Your Daily Forecast Email!

Thanks for signing up!

Be on the lookout for a verification email in your inbox.

You'll start receiving the daily forecast at 8 AM.

×

10-Day Weather Forecast

Almanac

Astronomie

Feb. 26, 2017 Lever Coucher
Temps réel
Crépuscule civil
Crépuscule nautique
Crépuscule astronomique
Lune
Durée de lumière visible
Longueur du jour
Tomorrow will be .
, % of the Moon is Illuminated

Extrêmes aujourd'hui

State Highs State Lows

Community

WunderPhotos

Upload Photos

1,962,540 Photos téléchargées !

WunderBlog® & News

Nearby

Qualité de l'air

  Qualité de l'air Indice de la qualité de l'air Polluant
Not available.

Épaisseur de neige

Station Depth Altitude

Activité sismique

Ville Distance Mag. Time & Date
Minimum magnitude displayed is 2.5.

Températures des eaux côtières

Lieu Température

Stations

Stations météo à proximité

Emplacement de la station Température Refroidissement éolien Point de rosée Humidité Vent Precip. Alt. Mise à jour Type
                   

Watches & Warnings

There are currently no watches in effect.